createdAt,value
2017-11-06T00:02:00.671Z,14.80
2017-11-06T00:04:26.969Z,17.03
2017-11-06T00:06:54.079Z,19.10
2017-11-06T00:09:20.421Z,17.93
2017-11-06T00:11:46.697Z,19.43
2017-11-06T00:14:13.010Z,21.93
2017-11-06T00:16:40.090Z,21.23
2017-11-06T00:19:06.443Z,23.07
2017-11-06T00:21:33.521Z,24.00
2017-11-06T00:23:59.858Z,23.33
2017-11-06T00:26:26.104Z,23.67
2017-11-06T00:28:53.235Z,22.97
2017-11-06T00:31:19.538Z,22.47
2017-11-06T00:33:45.832Z,22.87
2017-11-06T00:36:12.150Z,23.10
2017-11-06T00:38:39.199Z,22.67
2017-11-06T00:41:06.321Z,23.70
2017-11-06T00:43:32.637Z,23.37
2017-11-06T00:45:58.955Z,23.43
2017-11-06T00:48:25.276Z,23.67
2017-11-06T00:50:51.576Z,22.70
2017-11-06T00:53:18.624Z,24.00
2017-11-06T00:55:44.966Z,23.33
2017-11-06T00:58:11.321Z,21.60
2017-11-06T01:00:37.698Z,22.53
2017-11-06T01:03:03.997Z,20.40
2017-11-06T01:05:30.390Z,22.00
2017-11-06T01:07:56.714Z,21.93
2017-11-06T01:10:23.140Z,22.33
2017-11-06T01:12:49.526Z,23.23
2017-11-06T01:15:15.809Z,21.33
2017-11-06T01:17:42.939Z,24.10
2017-11-06T01:20:09.202Z,24.17
2017-11-06T01:22:35.558Z,23.90
2017-11-06T01:25:01.869Z,24.60
2017-11-06T01:27:28.417Z,24.03
2017-11-06T01:29:54.789Z,25.03
2017-11-06T01:32:21.097Z,21.83
2017-11-06T01:34:47.446Z,23.10
2017-11-06T01:37:13.847Z,25.40
2017-11-06T01:39:40.153Z,24.23
2017-11-06T01:42:07.230Z,21.20
2017-11-06T01:44:33.567Z,23.53
2017-11-06T01:46:59.915Z,23.80
2017-11-06T01:49:26.213Z,20.60
2017-11-06T01:51:52.517Z,20.90
2017-11-06T01:54:18.820Z,21.40
2017-11-06T01:56:45.224Z,21.93
2017-11-06T01:59:11.617Z,21.50
2017-11-06T02:01:37.894Z,20.83
2017-11-06T02:04:04.192Z,20.20
2017-11-06T02:06:30.473Z,22.37
2017-11-06T02:08:56.746Z,20.97
2017-11-06T02:11:23.076Z,21.77
2017-11-06T02:13:49.450Z,21.43
2017-11-06T02:16:15.781Z,21.43
2017-11-06T02:18:42.083Z,23.10
2017-11-06T02:21:08.390Z,23.27
2017-11-06T02:23:35.434Z,23.63
2017-11-06T02:26:02.531Z,20.97
2017-11-06T02:28:28.894Z,22.90
2017-11-06T02:30:55.297Z,22.17
2017-11-06T02:33:21.586Z,22.50
2017-11-06T02:35:47.893Z,22.73
2017-11-06T02:38:14.219Z,22.33
2017-11-06T02:40:40.555Z,23.20
2017-11-06T02:43:06.901Z,21.90
2017-11-06T02:45:34.033Z,22.20
2017-11-06T02:48:00.365Z,23.57
2017-11-06T02:50:27.468Z,21.60
2017-11-06T02:52:53.802Z,22.67
2017-11-06T02:55:20.156Z,21.80
2017-11-06T02:57:46.462Z,22.30
2017-11-06T03:00:12.785Z,20.43
2017-11-06T03:02:39.066Z,24.00
2017-11-06T03:05:05.382Z,24.40
2017-11-06T03:07:31.661Z,22.83
2017-11-06T03:09:57.960Z,21.77
2017-11-06T03:12:24.242Z,20.63
2017-11-06T03:14:50.529Z,21.13
2017-11-06T03:17:16.925Z,22.97
2017-11-06T03:19:43.272Z,22.93
2017-11-06T03:22:09.582Z,20.80
2017-11-06T03:24:35.888Z,23.50
2017-11-06T03:27:02.171Z,19.43
2017-11-06T03:29:28.510Z,21.60
2017-11-06T03:31:54.774Z,19.83
2017-11-06T03:34:21.057Z,19.73
2017-11-06T03:36:47.342Z,22.60
2017-11-06T03:39:13.669Z,20.13
2017-11-06T03:41:39.961Z,19.93
2017-11-06T03:44:06.252Z,20.80
2017-11-06T03:46:32.610Z,21.03
2017-11-06T03:48:58.886Z,18.30
2017-11-06T03:51:25.203Z,19.53
2017-11-06T03:53:52.272Z,19.40
2017-11-06T03:56:18.588Z,21.43
2017-11-06T03:58:45.639Z,20.10
2017-11-06T04:01:11.977Z,21.27
2017-11-06T04:03:38.289Z,20.37
2017-11-06T04:06:05.347Z,23.13
2017-11-06T04:08:31.672Z,20.23
2017-11-06T04:10:57.998Z,20.50
2017-11-06T04:13:25.085Z,22.20
2017-11-06T04:15:51.405Z,19.70
2017-11-06T04:18:17.707Z,19.00
2017-11-06T04:20:44.757Z,19.97
2017-11-06T04:23:11.026Z,19.57
2017-11-06T04:25:37.322Z,19.40
2017-11-06T04:28:03.631Z,19.20
2017-11-06T04:30:30.016Z,19.10
2017-11-06T04:32:56.354Z,20.57
2017-11-06T04:35:22.674Z,17.63
2017-11-06T04:37:49.100Z,18.13
2017-11-06T04:40:15.460Z,18.37
2017-11-06T04:42:41.756Z,17.80
2017-11-06T04:45:08.050Z,17.90
2017-11-06T04:47:34.399Z,18.10
2017-11-06T04:50:01.537Z,18.10
2017-11-06T04:52:27.852Z,18.33
2017-11-06T04:54:54.138Z,19.20
2017-11-06T04:57:20.420Z,19.40
2017-11-06T04:59:46.748Z,19.70
2017-11-06T05:02:13.062Z,17.30
2017-11-06T05:04:39.413Z,18.87
2017-11-06T05:07:05.698Z,17.80
2017-11-06T05:09:31.998Z,18.00
2017-11-06T05:11:59.071Z,16.77
2017-11-06T05:14:25.352Z,19.50
2017-11-06T05:16:51.690Z,19.17
2017-11-06T05:19:18.016Z,19.73
2017-11-06T05:21:44.336Z,19.17
2017-11-06T05:24:10.715Z,18.40
2017-11-06T05:26:37.073Z,19.50
2017-11-06T05:29:03.366Z,17.37
2017-11-06T05:31:30.390Z,18.93
2017-11-06T05:33:56.783Z,18.57
2017-11-06T05:36:23.065Z,19.40
2017-11-06T05:38:50.242Z,19.17
2017-11-06T05:41:16.550Z,18.37
2017-11-06T05:43:43.637Z,18.63
2017-11-06T05:46:09.949Z,17.03
2017-11-06T05:48:36.290Z,16.60
2017-11-06T05:51:02.621Z,16.70
2017-11-06T05:53:28.989Z,16.90
2017-11-06T05:55:56.076Z,16.53
2017-11-06T05:58:23.102Z,16.63
2017-11-06T06:00:49.500Z,17.53
2017-11-06T06:03:15.950Z,16.30
2017-11-06T06:05:42.299Z,16.63
2017-11-06T06:08:08.604Z,15.80
2017-11-06T06:10:34.896Z,16.40
2017-11-06T06:13:01.184Z,15.70
2017-11-06T06:15:27.456Z,14.40
2017-11-06T06:17:53.798Z,14.43
2017-11-06T06:20:20.125Z,13.80
2017-11-06T06:22:46.463Z,15.07
2017-11-06T06:25:12.750Z,16.17
2017-11-06T06:27:39.074Z,14.67
2017-11-06T06:30:05.430Z,15.30
2017-11-06T06:32:31.750Z,14.93
2017-11-06T06:34:58.813Z,14.80
2017-11-06T06:37:25.117Z,15.30
2017-11-06T06:39:51.547Z,15.37
2017-11-06T06:42:17.853Z,13.97
2017-11-06T06:44:44.221Z,13.53
2017-11-06T06:47:10.596Z,14.93
2017-11-06T06:49:36.897Z,14.37
2017-11-06T06:52:03.928Z,12.93
2017-11-06T06:54:30.293Z,14.20
2017-11-06T06:56:56.621Z,14.63
2017-11-06T06:59:22.925Z,13.07
2017-11-06T07:01:49.291Z,13.87
2017-11-06T07:04:15.623Z,11.80
2017-11-06T07:06:41.932Z,12.87
2017-11-06T07:09:15.896Z,12.93
2017-11-06T07:11:42.260Z,14.00
2017-11-06T07:14:09.325Z,14.03
2017-11-06T07:16:35.737Z,13.23
2017-11-06T07:19:02.109Z,13.27
2017-11-06T07:21:28.447Z,12.63
2017-11-06T07:23:54.793Z,14.17
2017-11-06T07:26:21.064Z,12.03
2017-11-06T07:28:47.345Z,12.17
2017-11-06T07:31:13.679Z,11.10
2017-11-06T07:33:39.974Z,11.87
2017-11-06T07:36:06.984Z,13.07
2017-11-06T07:38:33.387Z,11.60
2017-11-06T07:40:59.718Z,12.10
2017-11-06T07:43:26.105Z,11.30
2017-11-06T07:45:53.170Z,12.67
2017-11-06T07:48:20.297Z,13.40
2017-11-06T07:50:48.071Z,11.70
2017-11-06T07:53:14.414Z,11.20
2017-11-06T07:55:41.438Z,10.20
2017-11-06T07:58:08.477Z,11.50
2017-11-06T08:00:34.811Z,11.93
2017-11-06T08:03:01.073Z,13.47
2017-11-06T08:05:28.391Z,12.33
2017-11-06T08:07:54.740Z,11.60
2017-11-06T08:10:21.810Z,12.00
2017-11-06T08:12:48.890Z,11.50
2017-11-06T08:15:15.296Z,11.07
2017-11-06T08:17:41.706Z,11.97
2017-11-06T08:20:08.847Z,9.93
2017-11-06T08:22:35.284Z,11.60
2017-11-06T08:25:01.738Z,12.50
2017-11-06T08:27:28.842Z,11.10
2017-11-06T08:29:55.172Z,11.20
2017-11-06T08:32:21.508Z,11.07
2017-11-06T08:34:47.796Z,9.60
2017-11-06T08:37:14.169Z,10.27
2017-11-06T08:39:40.534Z,10.83
2017-11-06T08:42:07.550Z,10.10
2017-11-06T08:44:33.889Z,10.73
2017-11-06T08:47:00.178Z,10.03
2017-11-06T08:49:26.455Z,11.20
2017-11-06T08:51:52.839Z,9.17
2017-11-06T08:54:19.297Z,11.20
2017-11-06T08:56:45.639Z,10.33
2017-11-06T08:59:12.008Z,10.37
2017-11-06T09:01:39.065Z,10.67
2017-11-06T09:04:06.250Z,10.00
2017-11-06T09:06:32.563Z,10.97
2017-11-06T09:08:58.839Z,9.93
2017-11-06T09:11:25.159Z,9.43
2017-11-06T09:13:51.580Z,10.60
2017-11-06T09:16:17.884Z,10.60
2017-11-06T09:18:44.258Z,10.70
2017-11-06T09:21:10.544Z,9.57
2017-11-06T09:23:36.845Z,10.10
2017-11-06T09:26:03.153Z,9.70
2017-11-06T09:28:29.447Z,10.00
2017-11-06T09:30:55.991Z,12.00
2017-11-06T09:33:22.304Z,10.63
2017-11-06T09:35:48.636Z,10.30
2017-11-06T09:38:15.140Z,11.60
2017-11-06T09:40:42.228Z,12.20
2017-11-06T09:43:08.587Z,10.93
2017-11-06T09:45:35.748Z,10.00
2017-11-06T09:48:02.078Z,11.53
2017-11-06T09:50:28.365Z,11.80
2017-11-06T09:52:54.686Z,12.23
2017-11-06T09:55:21.047Z,11.97
2017-11-06T09:57:47.390Z,13.00
2017-11-06T10:00:13.784Z,13.60
2017-11-06T10:02:40.109Z,12.30
2017-11-06T10:05:06.388Z,11.90
2017-11-06T10:07:32.738Z,12.30
2017-11-06T10:09:59.181Z,13.33
2017-11-06T10:12:26.253Z,13.10
2017-11-06T10:14:53.799Z,12.80
2017-11-06T10:17:20.879Z,13.27
2017-11-06T10:19:47.270Z,13.83
2017-11-06T10:22:13.545Z,13.40
2017-11-06T10:24:39.849Z,12.30
2017-11-06T10:27:06.978Z,13.57
2017-11-06T10:29:33.312Z,14.17
2017-11-06T10:32:00.420Z,15.70
2017-11-06T10:34:26.818Z,14.43
2017-11-06T10:36:53.965Z,12.17
2017-11-06T10:39:20.308Z,12.93
2017-11-06T10:41:46.693Z,11.97
2017-11-06T10:44:13.031Z,13.20
2017-11-06T10:46:39.369Z,13.37
2017-11-06T10:49:05.681Z,15.20
2017-11-06T10:51:32.006Z,13.70
2017-11-06T10:53:58.555Z,14.40
2017-11-06T10:56:24.880Z,15.10
2017-11-06T10:58:51.342Z,14.50
2017-11-06T11:01:18.434Z,13.20
2017-11-06T11:03:44.765Z,13.47
2017-11-06T11:06:11.108Z,13.93
2017-11-06T11:08:37.396Z,13.70
2017-11-06T11:11:04.477Z,11.90
2017-11-06T11:13:30.860Z,14.30
2017-11-06T11:15:57.202Z,12.90
2017-11-06T11:18:24.486Z,13.07
2017-11-06T11:20:50.974Z,12.70
2017-11-06T11:23:17.772Z,13.30
2017-11-06T11:25:44.155Z,11.63
2017-11-06T11:28:10.463Z,13.23
2017-11-06T11:30:36.890Z,13.77
2017-11-06T11:33:03.227Z,14.17
2017-11-06T11:35:29.666Z,14.00
2017-11-06T11:37:55.957Z,13.93
2017-11-06T11:40:22.329Z,13.13
2017-11-06T11:42:48.714Z,11.50
2017-11-06T11:45:15.090Z,12.77
2017-11-06T11:47:41.489Z,12.13
2017-11-06T11:50:07.920Z,12.23
2017-11-06T11:52:34.331Z,11.97
2017-11-06T11:55:00.805Z,13.57
2017-11-06T11:57:27.293Z,14.47
2017-11-06T11:59:54.460Z,11.50
2017-11-06T12:02:21.003Z,13.23
2017-11-06T12:04:47.410Z,12.27
2017-11-06T12:07:14.580Z,11.50
2017-11-06T12:09:41.010Z,12.20
2017-11-06T12:12:07.435Z,12.73
2017-11-06T12:14:34.588Z,13.00
2017-11-06T12:17:01.753Z,11.67
2017-11-06T12:19:28.221Z,12.90
2017-11-06T12:21:54.584Z,12.87
2017-11-06T12:24:20.879Z,13.33
2017-11-06T12:26:47.193Z,14.27
2017-11-06T12:29:13.585Z,11.43
2017-11-06T12:31:39.988Z,13.43
2017-11-06T12:34:06.287Z,13.07
2017-11-06T12:36:32.776Z,13.10
2017-11-06T12:38:59.121Z,12.93
2017-11-06T12:41:26.279Z,12.33
2017-11-06T12:43:53.421Z,12.50
2017-11-06T12:46:20.567Z,12.50
2017-11-06T12:48:47.657Z,13.23
2017-11-06T12:51:14.132Z,15.03
2017-11-06T12:53:40.582Z,13.50
2017-11-06T12:56:07.758Z,13.23
2017-11-06T12:58:34.129Z,12.70
2017-11-06T13:01:00.434Z,13.10
2017-11-06T13:03:26.766Z,12.90
2017-11-06T13:05:53.128Z,12.33
2017-11-06T13:08:19.605Z,13.10
2017-11-06T13:10:46.672Z,12.90
2017-11-06T13:13:13.020Z,14.13
2017-11-06T13:15:39.378Z,12.30
2017-11-06T13:18:05.710Z,12.33
2017-11-06T13:20:32.017Z,12.90
2017-11-06T13:22:58.421Z,12.13
2017-11-06T13:25:24.734Z,10.40
2017-11-06T13:27:51.771Z,11.47
2017-11-06T13:30:18.094Z,12.23
2017-11-06T13:32:44.452Z,14.10
2017-11-06T13:35:10.817Z,12.00
2017-11-06T13:37:37.144Z,12.30
2017-11-06T13:40:03.443Z,12.03
2017-11-06T13:42:29.821Z,12.90
2017-11-06T13:44:56.163Z,11.30
2017-11-06T13:47:22.477Z,10.70
2017-11-06T13:49:48.763Z,11.30
2017-11-06T13:52:15.813Z,11.93
2017-11-06T13:54:42.925Z,11.40
2017-11-06T13:57:09.212Z,11.07
2017-11-06T13:59:35.500Z,10.90
2017-11-06T14:02:01.793Z,10.30
2017-11-06T14:04:28.173Z,10.33
2017-11-06T14:06:54.487Z,8.33
2017-11-06T14:09:20.815Z,10.60
2017-11-06T14:11:47.133Z,10.17
2017-11-06T14:14:13.464Z,10.13
2017-11-06T14:16:39.833Z,10.33
2017-11-06T14:19:06.162Z,10.27
2017-11-06T14:21:32.490Z,10.57
2017-11-06T14:23:58.795Z,9.07
2017-11-06T14:26:25.058Z,9.93
2017-11-06T14:28:52.117Z,9.13
2017-11-06T14:31:19.246Z,9.13
2017-11-06T14:33:46.320Z,10.03
2017-11-06T14:36:12.712Z,10.00
2017-11-06T14:38:40.339Z,8.70
2017-11-06T14:41:07.229Z,9.90
2017-11-06T14:43:33.636Z,10.63
2017-11-06T14:45:59.981Z,9.70
2017-11-06T14:48:26.245Z,10.17
2017-11-06T14:50:54.153Z,9.10
2017-11-06T14:53:20.492Z,9.40
2017-11-06T14:55:46.778Z,9.73
2017-11-06T14:58:13.218Z,9.73
2017-11-06T15:00:40.305Z,9.87
2017-11-06T15:03:06.591Z,10.80
2017-11-06T15:05:33.678Z,9.33
2017-11-06T15:07:59.958Z,9.03
2017-11-06T15:10:26.998Z,10.07
2017-11-06T15:12:54.770Z,9.93
2017-11-06T15:15:21.096Z,10.17
2017-11-06T15:17:47.454Z,10.37
2017-11-06T15:20:13.858Z,10.57
2017-11-06T15:22:40.243Z,10.27
2017-11-06T15:25:06.509Z,10.13
2017-11-06T15:27:32.900Z,10.23
2017-11-06T15:29:59.262Z,10.60
2017-11-06T15:32:25.656Z,11.20
2017-11-06T15:34:52.007Z,11.30
2017-11-06T15:37:18.421Z,11.20
2017-11-06T15:39:44.746Z,11.03
2017-11-06T15:42:11.066Z,11.53
2017-11-06T15:44:37.431Z,12.70
2017-11-06T15:47:03.795Z,13.80
2017-11-06T15:49:30.133Z,12.60
2017-11-06T15:51:57.214Z,13.17
2017-11-06T15:54:24.326Z,14.30
2017-11-06T15:56:51.292Z,12.23
2017-11-06T15:59:17.640Z,13.60
2017-11-06T16:01:44.667Z,15.70
2017-11-06T16:04:10.951Z,15.80
2017-11-06T16:06:37.462Z,16.23
2017-11-06T16:09:03.786Z,17.90
2017-11-06T16:11:30.389Z,18.27
2017-11-06T16:13:56.769Z,19.00
2017-11-06T16:16:23.059Z,20.27
2017-11-06T16:18:49.369Z,18.17
2017-11-06T16:21:15.721Z,18.07
2017-11-06T16:23:42.025Z,18.80
2017-11-06T16:26:08.361Z,20.90
2017-11-06T16:28:34.930Z,20.93
2017-11-06T16:31:01.245Z,19.23
2017-11-06T16:33:27.747Z,20.17
2017-11-06T16:35:54.047Z,18.77
2017-11-06T16:38:20.555Z,18.63
2017-11-06T16:40:46.885Z,16.50
2017-11-06T16:43:13.503Z,15.53
2017-11-06T16:45:39.837Z,16.10
2017-11-06T16:48:06.186Z,18.23
2017-11-06T16:50:32.640Z,17.87
2017-11-06T16:52:59.711Z,16.17
2017-11-06T16:55:26.174Z,15.90
2017-11-06T16:57:52.495Z,16.00
2017-11-06T17:00:18.824Z,17.07
2017-11-06T17:02:45.185Z,19.90
2017-11-06T17:05:11.541Z,19.07
2017-11-06T17:07:38.612Z,20.10
2017-11-06T17:10:05.099Z,18.90
2017-11-06T17:12:31.405Z,18.80
2017-11-06T17:14:57.779Z,20.13
2017-11-06T17:17:24.101Z,18.60
2017-11-06T17:19:50.443Z,19.60
2017-11-06T17:22:16.843Z,21.50
2017-11-06T17:24:43.272Z,17.73
2017-11-06T17:27:09.620Z,19.73
2017-11-06T17:29:36.084Z,19.97
2017-11-06T17:32:03.221Z,18.10
2017-11-06T17:34:29.581Z,18.23
2017-11-06T17:36:55.963Z,18.47
2017-11-06T17:39:22.315Z,28.13
2017-11-06T17:41:48.709Z,32.27
2017-11-06T17:44:16.136Z,20.47
2017-11-06T17:46:42.591Z,20.47
2017-11-06T17:49:08.989Z,19.37
2017-11-06T17:51:36.103Z,18.97
2017-11-06T17:54:02.426Z,18.77
2017-11-06T17:56:29.252Z,20.70
2017-11-06T17:58:55.870Z,19.50
2017-11-06T18:01:22.258Z,17.83
2017-11-06T18:03:48.773Z,17.93
2017-11-06T18:06:15.157Z,19.40
2017-11-06T18:08:42.420Z,18.10
2017-11-06T18:11:09.027Z,20.53
2017-11-06T18:13:36.446Z,19.87
2017-11-06T18:16:03.289Z,20.53
2017-11-06T18:18:29.684Z,17.43
2017-11-06T18:20:56.053Z,18.90
2017-11-06T18:23:22.389Z,16.80
2017-11-06T18:25:48.829Z,18.03
2017-11-06T18:28:15.173Z,18.20
2017-11-06T18:30:41.726Z,17.73
2017-11-06T18:33:08.199Z,17.83
2017-11-06T18:35:34.547Z,17.10
2017-11-06T18:38:00.938Z,18.40
2017-11-06T18:40:28.236Z,19.67
2017-11-06T18:42:54.663Z,19.90
2017-11-06T18:45:21.202Z,19.33
2017-11-06T18:47:47.602Z,19.30
2017-11-06T18:50:14.724Z,18.13
2017-11-06T18:52:41.077Z,19.50
2017-11-06T18:55:08.168Z,19.60
2017-11-06T18:57:34.526Z,19.97
2017-11-06T19:00:00.945Z,23.80
2017-11-06T19:02:27.312Z,23.20
2017-11-06T19:04:55.143Z,23.80
2017-11-06T19:07:21.617Z,22.80
2017-11-06T19:09:48.765Z,24.93
2017-11-06T19:12:15.883Z,23.60
2017-11-06T19:14:42.212Z,24.47
2017-11-06T19:17:08.573Z,21.00
2017-11-06T19:19:35.801Z,20.13
2017-11-06T19:22:02.315Z,20.90
2017-11-06T19:24:28.696Z,18.00
2017-11-06T19:26:55.841Z,20.43
2017-11-06T19:29:22.181Z,19.07
2017-11-06T19:31:49.286Z,17.47
2017-11-06T19:34:15.656Z,16.53
2017-11-06T19:36:42.090Z,19.07
2017-11-06T19:39:08.395Z,17.77
2017-11-06T19:41:34.722Z,17.53
2017-11-06T19:44:02.083Z,17.73
2017-11-06T19:46:29.943Z,18.00
2017-11-06T19:48:57.104Z,18.00
2017-11-06T19:51:24.613Z,16.60
2017-11-06T19:53:51.043Z,15.50
2017-11-06T19:56:17.478Z,15.50
2017-11-06T19:58:43.867Z,16.20
2017-11-06T20:01:10.167Z,17.43
2017-11-06T20:03:36.528Z,16.40
2017-11-06T20:06:03.086Z,14.60
2017-11-06T20:08:29.537Z,15.90
2017-11-06T20:10:55.948Z,15.90
2017-11-06T20:13:22.480Z,16.57
2017-11-06T20:15:48.821Z,16.27
2017-11-06T20:18:15.922Z,16.80
2017-11-06T20:20:42.248Z,15.57
2017-11-06T20:23:08.622Z,15.80
2017-11-06T20:25:34.998Z,15.80
2017-11-06T20:28:01.318Z,14.73
2017-11-06T20:30:27.676Z,17.27
2017-11-06T20:32:54.058Z,15.73
2017-11-06T20:35:20.728Z,15.60
2017-11-06T20:37:47.366Z,14.50
2017-11-06T20:40:14.134Z,15.80
2017-11-06T20:42:40.455Z,15.20
2017-11-06T20:45:06.921Z,14.50
2017-11-06T20:47:33.374Z,14.80
2017-11-06T20:50:00.541Z,14.80
2017-11-06T20:52:26.883Z,16.70
2017-11-06T20:54:53.224Z,16.47
2017-11-06T20:57:19.548Z,16.43
2017-11-06T20:59:45.893Z,17.13
2017-11-06T21:02:12.285Z,17.27
2017-11-06T21:04:39.389Z,18.43
2017-11-06T21:07:06.140Z,18.20
2017-11-06T21:09:33.101Z,16.93
2017-11-06T21:11:59.719Z,17.37
2017-11-06T21:14:27.510Z,16.83
2017-11-06T21:16:53.908Z,18.03
2017-11-06T21:19:20.320Z,17.87
2017-11-06T21:21:46.770Z,18.53
2017-11-06T21:24:13.098Z,18.10
2017-11-06T21:26:39.372Z,15.93
2017-11-06T21:29:05.714Z,17.40
2017-11-06T21:31:32.058Z,18.90
2017-11-06T21:33:59.103Z,15.57
2017-11-06T21:36:25.547Z,16.80
2017-11-06T21:38:52.605Z,17.97
2017-11-06T21:41:19.013Z,17.10
2017-11-06T21:43:46.061Z,16.63
2017-11-06T21:46:13.106Z,17.10
2017-11-06T21:48:40.174Z,17.10
2017-11-06T21:51:07.213Z,17.80
2017-11-06T21:53:34.287Z,17.07
2017-11-06T21:56:00.585Z,16.90
2017-11-06T21:58:26.893Z,15.80
2017-11-06T22:00:53.206Z,16.20
2017-11-06T22:03:19.558Z,17.13
2017-11-06T22:05:45.872Z,18.20
2017-11-06T22:08:12.185Z,16.10
2017-11-06T22:10:38.492Z,17.17
2017-11-06T22:13:05.026Z,14.60
2017-11-06T22:15:32.121Z,17.47
2017-11-06T22:17:58.422Z,20.07
2017-11-06T22:20:24.752Z,17.43
2017-11-06T22:22:52.044Z,17.53
2017-11-06T22:25:18.424Z,16.30
2017-11-06T22:27:45.510Z,16.27
2017-11-06T22:30:11.921Z,17.63
2017-11-06T22:32:38.229Z,16.67
2017-11-06T22:35:05.293Z,16.40
2017-11-06T22:37:31.593Z,15.90
2017-11-06T22:39:57.897Z,15.57
2017-11-06T22:42:24.215Z,16.20
2017-11-06T22:44:50.527Z,16.20
2017-11-06T22:47:16.822Z,16.57
2017-11-06T22:49:43.906Z,17.40
2017-11-06T22:52:10.934Z,17.30
2017-11-06T22:54:38.002Z,19.33
2017-11-06T22:57:04.312Z,15.40
2017-11-06T22:59:31.296Z,15.37
2017-11-06T23:01:57.592Z,16.90
2017-11-06T23:04:23.888Z,16.20
2017-11-06T23:06:50.162Z,15.40
2017-11-06T23:09:16.570Z,15.50
2017-11-06T23:11:43.772Z,16.20
2017-11-06T23:14:10.162Z,16.50
2017-11-06T23:16:37.225Z,16.90
2017-11-06T23:19:03.566Z,16.87
2017-11-06T23:21:29.883Z,18.20
2017-11-06T23:23:56.235Z,16.00
2017-11-06T23:26:22.550Z,17.33
2017-11-06T23:28:48.877Z,17.87
2017-11-06T23:31:15.181Z,16.67
2017-11-06T23:33:41.475Z,16.40
2017-11-06T23:36:07.842Z,17.87
2017-11-06T23:38:34.277Z,15.13
2017-11-06T23:41:00.563Z,17.67
2017-11-06T23:43:26.901Z,15.77
2017-11-06T23:45:53.285Z,18.13
2017-11-06T23:48:20.329Z,17.50
2017-11-06T23:50:47.469Z,18.63
2017-11-06T23:53:13.811Z,19.60
2017-11-06T23:55:40.888Z,17.23
2017-11-06T23:58:07.277Z,19.70
